Terminal Aerodrome Forecast
Issued by NWS Jackson, MS

Home | Current Version | Previous Version | Text Only | Print | Product List | Glossary On
Versions: 1 2 3 4 5 6 7 8 9 10 11 12 13 14 15 16 17 18 19 20 21
115
FTUS44 KJAN 211121
TAFGLH
TAF
KGLH 211121Z 2112/2212 17006KT P6SM VCSH BKN015 OVC025
     FM211400 05012KT 4SM RA BR BKN010 OVC025
     FM211900 01014KT P6SM OVC015
     FM220000 29015G24KT 2SM +TSRA BKN007 OVC010CB
     FM220300 01010KT 4SM RA BR VCTS OVC007CB=

USA.gov is the U.S. government's official web portal to all federal, state and local government web resources and services.